Sd416 Nippon — SKPF — position and weather

sailwx.info

Track history (hours):
 
Tides and Currents Weather Stations Pressure Air Temp Water Temp Dewpoint Dewpoint Depression Visibility Wind Speed Wind Dir Waves Ship Positions

Sd416 Nippon

Last reported at 2018-Jan-18 17:00 UTC. Time now 2018-Jan-18 17:17 UTC.
Position N 58°56' E 011°03'.

Length 17 m; draft 2.5 m.

Type: Fishing. MMSI: 266163000.

Date/timePositionNaut miles runAvg speedWind from/ knotsBaromVisibWave heightAir tempDewpointWater temp
2018-Jan-18 17:00N 58°56' E 011°03'4 7.2
2018-Jan-18 16:30N 58°55' E 010°57'4 7.4
2018-Jan-18 16:00N 58°52' E 010°53'4 7.4
2018-Jan-18 15:30N 58°49' E 010°48'2 4.6
2018-Jan-18 15:00N 58°48' E 010°44'3 5.7
2018-Jan-18 14:30N 58°46' E 010°39'3 6.6
2018-Jan-18 14:00N 58°45' E 010°34'3 5.6
2018-Jan-18 13:30N 58°43' E 010°29'8 6.1
2018-Jan-18 12:10N 58°39' E 010°17'0 0.9
2018-Jan-18 12:00N 58°39' E 010°17'  
2018-Jan-11 11:23N 58°56' E 011°10'0 0.0
2018-Jan-11 11:00N 58°56' E 011°10'0 0.0
2018-Jan-11 10:30N 58°56' E 011°10'0 0.0
2018-Jan-11 10:00N 58°56' E 011°10'0 0.0
2018-Jan-11 09:30N 58°56' E 011°10'0 0.0
2018-Jan-11 09:00N 58°56' E 011°10'0 0.0
2018-Jan-11 08:30N 58°56' E 011°10'0 0.0
2018-Jan-11 08:00N 58°56' E 011°10'0 0.0
2018-Jan-11 07:30N 58°56' E 011°10'0 0.1
2018-Jan-11 07:00N 58°56' E 011°10'0 0.0
2018-Jan-11 06:30N 58°56' E 011°10'0 0.0
2018-Jan-11 06:00N 58°56' E 011°10'0 0.0
2018-Jan-11 05:29N 58°56' E 011°10'0 0.0
2018-Jan-11 05:00N 58°56' E 011°10'0 0.0
2018-Jan-11 04:30N 58°56' E 011°10'0 0.0
2018-Jan-11 04:00N 58°56' E 011°10'0 0.0
2018-Jan-11 03:30N 58°56' E 011°10'0 0.0
2018-Jan-11 03:00N 58°56' E 011°10'0 0.0
2018-Jan-11 02:30N 58°56' E 011°10'0 0.0
2018-Jan-11 01:59N 58°56' E 011°10'0 0.0
2018-Jan-11 01:30N 58°56' E 011°10'0 0.0
2018-Jan-11 01:00N 58°56' E 011°10'0 0.0
2018-Jan-11 00:30N 58°56' E 011°10'0 0.0
2018-Jan-11 00:00N 58°56' E 011°10'0 0.0
2018-Jan-10 23:30N 58°56' E 011°10'0 0.0
2018-Jan-10 23:00N 58°56' E 011°10'0 0.0
2018-Jan-10 22:30N 58°56' E 011°10'0 0.0
2018-Jan-10 22:00N 58°56' E 011°10'0 0.0
2018-Jan-10 21:30N 58°56' E 011°10'0 0.0
2018-Jan-10 21:00N 58°56' E 011°10'0 0.0
2018-Jan-10 20:30N 58°56' E 011°10'0 0.0
2018-Jan-10 20:00N 58°56' E 011°10'0 0.0
2018-Jan-10 19:30N 58°56' E 011°10'0 0.0
2018-Jan-10 19:00N 58°56' E 011°10'0 0.0
2018-Jan-10 18:30N 58°56' E 011°10'0 0.0
2018-Jan-10 18:00N 58°56' E 011°10'0 0.0
2018-Jan-10 17:28N 58°56' E 011°10'0 0.0
2018-Jan-10 17:00N 58°56' E 011°10'0 0.0
2018-Jan-10 16:29N 58°56' E 011°10'0 0.0
2018-Jan-10 16:00N 58°56' E 011°10'0 0.0
2018-Jan-10 15:30N 58°56' E 011°10'0 0.0
2018-Jan-10 15:00N 58°56' E 011°10'0 0.2
2018-Jan-10 14:30N 58°56' E 011°10'3 6.7
2018-Jan-10 14:00N 58°57' E 011°04'4 7.7
2018-Jan-10 13:30N 58°60' E 010°59'4 7.8
2018-Jan-10 13:00N 59°03' E 010°54'2 3.9
2018-Jan-10 12:30N 59°05' E 010°52'0 0.0
2018-Jan-10 12:00N 59°05' E 010°52'0 0.0
2018-Jan-10 11:30N 59°05' E 010°52'0 0.0
2018-Jan-10 11:00N 59°05' E 010°52'0 0.0
2018-Jan-10 10:30N 59°05' E 010°52'0 0.0
2018-Jan-10 10:00N 59°05' E 010°52'0 0.0
2018-Jan-10 09:30N 59°05' E 010°52'0 0.0
2018-Jan-10 09:00N 59°05' E 010°52'0 0.0
2018-Jan-10 08:30N 59°05' E 010°52'0 0.0
2018-Jan-10 08:00N 59°05' E 010°52'0 0.0
2018-Jan-10 07:30N 59°05' E 010°52'0 0.0
2018-Jan-10 07:00N 59°05' E 010°52'1 1.9
2018-Jan-10 06:30N 59°04' E 010°53'4 7.5
2018-Jan-10 06:00N 59°01' E 010°57'4 7.8
2018-Jan-10 05:30N 58°58' E 011°02'4 7.4
2018-Jan-10 05:00N 58°56' E 011°08'1 2.3
2018-Jan-10 04:30N 58°56' E 011°10'0 0.0
2018-Jan-10 04:00N 58°56' E 011°10'0 0.0
2018-Jan-10 03:30N 58°56' E 011°10'0 0.0
2018-Jan-10 03:00N 58°56' E 011°10'0 0.0
2018-Jan-10 02:30N 58°56' E 011°10'0 0.0
2018-Jan-10 02:00N 58°56' E 011°10'0 0.0
2018-Jan-10 01:30N 58°56' E 011°10'0 0.0
2018-Jan-10 01:00N 58°56' E 011°10'0 0.0
2018-Jan-10 00:30N 58°56' E 011°10'0 0.0
2018-Jan-10 00:00N 58°56' E 011°10'0 0.0
2018-Jan-09 23:30N 58°56' E 011°10'0 0.0
2018-Jan-09 23:00N 58°56' E 011°10'0 0.0
2018-Jan-09 22:30N 58°56' E 011°10'0 0.0
2018-Jan-09 22:00N 58°56' E 011°10'0 0.0
2018-Jan-09 21:30N 58°56' E 011°10'0 0.0
2018-Jan-09 21:00N 58°56' E 011°10'0 0.0
2018-Jan-09 20:30N 58°56' E 011°10'0 0.0
2018-Jan-09 20:00N 58°56' E 011°10'3 5.4
2018-Jan-09 19:30N 58°56' E 011°05'0 0.9
2018-Jan-09 19:00N 58°56' E 011°04'3 5.5
2018-Jan-09 18:30N 58°56' E 010°59'4 7.3
2018-Jan-09 18:00N 58°53' E 010°54'4 7.2
2018-Jan-09 17:30N 58°51' E 010°49'4 7.0
2018-Jan-09 17:00N 58°48' E 010°44'3 6.4
2018-Jan-09 16:30N 58°47' E 010°39'3 6.0
2018-Jan-09 16:00N 58°45' E 010°34'3 5.5
2018-Jan-09 15:30N 58°44' E 010°29'3 5.3
2018-Jan-09 15:00N 58°43' E 010°24'3 5.1
2018-Jan-09 14:30N 58°42' E 010°19'4 4.8
2018-Jan-09 13:36N 58°40' E 010°12'0 2.2
2018-Jan-09 13:30N 58°40' E 010°12'1 2.2
2018-Jan-09 13:00N 58°40' E 010°14'0 0.8
2018-Jan-09 12:30N 58°40' E 010°15'1 1.5
2018-Jan-09 11:59N 58°40' E 010°17'1 1.5
2018-Jan-09 11:28N 58°39' E 010°17'1 1.6
2018-Jan-09 11:00N 58°38' E 010°18'1 1.6
2018-Jan-09 10:30N 58°38' E 010°18'1 1.5
2018-Jan-09 09:58N 58°37' E 010°19'1 1.6
2018-Jan-09 09:17N 58°36' E 010°21'0 1.5
2018-Jan-09 09:00N 58°36' E 010°21'1 1.5
2018-Jan-09 08:30N 58°35' E 010°22'2 1.4
2018-Jan-09 07:23N 58°34' E 010°24'2 1.5
2018-Jan-09 06:22N 58°32' E 010°24'1 1.4
2018-Jan-09 05:59N 58°32' E 010°24'1 1.6
2018-Jan-09 05:30N 58°31' E 010°25'1 1.5
2018-Jan-09 05:00N 58°31' E 010°26'1 1.5
2018-Jan-09 04:30N 58°30' E 010°26'1 1.4
2018-Jan-09 04:00N 58°29' E 010°26'1 1.6
2018-Jan-09 03:30N 58°29' E 010°27'1 1.5
2018-Jan-09 03:00N 58°28' E 010°28'1 1.5
2018-Jan-09 02:30N 58°27' E 010°29'1 1.5
2018-Jan-09 02:00N 58°27' E 010°29'1 1.5
2018-Jan-09 01:24N 58°26' E 010°29'1 1.4
2018-Jan-09 01:00N 58°25' E 010°29'1 2.1
2018-Jan-09 00:27N 58°24' E 010°29'16 5.3
2018-Jan-08 21:28N 58°37' E 010°11'0 0.2
2018-Jan-08 21:00N 58°37' E 010°11'4 2.0
2018-Jan-08 19:11N 58°34' E 010°08'1 2.8
2018-Jan-08 19:00N 58°34' E 010°08'2 3.0
2018-Jan-08 18:30N 58°35' E 010°10'2 4.5
2018-Jan-08 18:00N 58°36' E 010°14'3 5.3
2018-Jan-08 17:29N 58°37' E 010°19'  
Track history (hours):
 
Tides and Currents Weather Stations Pressure Air Temp Water Temp Dewpoint Dewpoint Depression Visibility Wind Speed Wind Dir Waves Ship Positions

Sd416 Nippon

Last reported at 2018-Jan-18 17:00 UTC. Time now 2018-Jan-18 17:17 UTC.
Position N 58°56' E 011°03'.

Length 17 m; draft 2.5 m.

Type: Fishing. MMSI: 266163000.

Date/timePositionNaut miles runAvg speedWind from/ knotsBaromVisibWave heightAir tempDewpointWater temp
2018-Jan-18 17:00N 58°56' E 011°03'4 7.2
2018-Jan-18 16:30N 58°55' E 010°57'4 7.4
2018-Jan-18 16:00N 58°52' E 010°53'4 7.4
2018-Jan-18 15:30N 58°49' E 010°48'2 4.6
2018-Jan-18 15:00N 58°48' E 010°44'3 5.7
2018-Jan-18 14:30N 58°46' E 010°39'3 6.6
2018-Jan-18 14:00N 58°45' E 010°34'3 5.6
2018-Jan-18 13:30N 58°43' E 010°29'8 6.1
2018-Jan-18 12:10N 58°39' E 010°17'0 0.9
2018-Jan-18 12:00N 58°39' E 010°17'  
2018-Jan-11 11:23N 58°56' E 011°10'0 0.0
2018-Jan-11 11:00N 58°56' E 011°10'0 0.0
2018-Jan-11 10:30N 58°56' E 011°10'0 0.0
2018-Jan-11 10:00N 58°56' E 011°10'0 0.0
2018-Jan-11 09:30N 58°56' E 011°10'0 0.0
2018-Jan-11 09:00N 58°56' E 011°10'0 0.0
2018-Jan-11 08:30N 58°56' E 011°10'0 0.0
2018-Jan-11 08:00N 58°56' E 011°10'0 0.0
2018-Jan-11 07:30N 58°56' E 011°10'0 0.1
2018-Jan-11 07:00N 58°56' E 011°10'0 0.0
2018-Jan-11 06:30N 58°56' E 011°10'0 0.0
2018-Jan-11 06:00N 58°56' E 011°10'0 0.0
2018-Jan-11 05:29N 58°56' E 011°10'0 0.0
2018-Jan-11 05:00N 58°56' E 011°10'0 0.0
2018-Jan-11 04:30N 58°56' E 011°10'0 0.0
2018-Jan-11 04:00N 58°56' E 011°10'0 0.0
2018-Jan-11 03:30N 58°56' E 011°10'0 0.0
2018-Jan-11 03:00N 58°56' E 011°10'0 0.0
2018-Jan-11 02:30N 58°56' E 011°10'0 0.0
2018-Jan-11 01:59N 58°56' E 011°10'0 0.0
2018-Jan-11 01:30N 58°56' E 011°10'0 0.0
2018-Jan-11 01:00N 58°56' E 011°10'0 0.0
2018-Jan-11 00:30N 58°56' E 011°10'0 0.0
2018-Jan-11 00:00N 58°56' E 011°10'0 0.0
2018-Jan-10 23:30N 58°56' E 011°10'0 0.0
2018-Jan-10 23:00N 58°56' E 011°10'0 0.0
2018-Jan-10 22:30N 58°56' E 011°10'0 0.0
2018-Jan-10 22:00N 58°56' E 011°10'0 0.0
2018-Jan-10 21:30N 58°56' E 011°10'0 0.0
2018-Jan-10 21:00N 58°56' E 011°10'0 0.0
2018-Jan-10 20:30N 58°56' E 011°10'0 0.0
2018-Jan-10 20:00N 58°56' E 011°10'0 0.0
2018-Jan-10 19:30N 58°56' E 011°10'0 0.0
2018-Jan-10 19:00N 58°56' E 011°10'0 0.0
2018-Jan-10 18:30N 58°56' E 011°10'0 0.0
2018-Jan-10 18:00N 58°56' E 011°10'0 0.0
2018-Jan-10 17:28N 58°56' E 011°10'0 0.0
2018-Jan-10 17:00N 58°56' E 011°10'0 0.0
2018-Jan-10 16:29N 58°56' E 011°10'0 0.0
2018-Jan-10 16:00N 58°56' E 011°10'0 0.0
2018-Jan-10 15:30N 58°56' E 011°10'0 0.0
2018-Jan-10 15:00N 58°56' E 011°10'0 0.2
2018-Jan-10 14:30N 58°56' E 011°10'3 6.7
2018-Jan-10 14:00N 58°57' E 011°04'4 7.7
2018-Jan-10 13:30N 58°60' E 010°59'4 7.8
2018-Jan-10 13:00N 59°03' E 010°54'2 3.9
2018-Jan-10 12:30N 59°05' E 010°52'0 0.0
2018-Jan-10 12:00N 59°05' E 010°52'0 0.0
2018-Jan-10 11:30N 59°05' E 010°52'0 0.0
2018-Jan-10 11:00N 59°05' E 010°52'0 0.0
2018-Jan-10 10:30N 59°05' E 010°52'0 0.0
2018-Jan-10 10:00N 59°05' E 010°52'0 0.0
2018-Jan-10 09:30N 59°05' E 010°52'0 0.0
2018-Jan-10 09:00N 59°05' E 010°52'0 0.0
2018-Jan-10 08:30N 59°05' E 010°52'0 0.0
2018-Jan-10 08:00N 59°05' E 010°52'0 0.0
2018-Jan-10 07:30N 59°05' E 010°52'0 0.0
2018-Jan-10 07:00N 59°05' E 010°52'1 1.9
2018-Jan-10 06:30N 59°04' E 010°53'4 7.5
2018-Jan-10 06:00N 59°01' E 010°57'4 7.8
2018-Jan-10 05:30N 58°58' E 011°02'4 7.4
2018-Jan-10 05:00N 58°56' E 011°08'1 2.3
2018-Jan-10 04:30N 58°56' E 011°10'0 0.0
2018-Jan-10 04:00N 58°56' E 011°10'0 0.0
2018-Jan-10 03:30N 58°56' E 011°10'0 0.0
2018-Jan-10 03:00N 58°56' E 011°10'0 0.0
2018-Jan-10 02:30N 58°56' E 011°10'0 0.0
2018-Jan-10 02:00N 58°56' E 011°10'0 0.0
2018-Jan-10 01:30N 58°56' E 011°10'0 0.0
2018-Jan-10 01:00N 58°56' E 011°10'0 0.0
2018-Jan-10 00:30N 58°56' E 011°10'0 0.0
2018-Jan-10 00:00N 58°56' E 011°10'0 0.0
2018-Jan-09 23:30N 58°56' E 011°10'0 0.0
2018-Jan-09 23:00N 58°56' E 011°10'0 0.0
2018-Jan-09 22:30N 58°56' E 011°10'0 0.0
2018-Jan-09 22:00N 58°56' E 011°10'0 0.0
2018-Jan-09 21:30N 58°56' E 011°10'0 0.0
2018-Jan-09 21:00N 58°56' E 011°10'0 0.0
2018-Jan-09 20:30N 58°56' E 011°10'0 0.0
2018-Jan-09 20:00N 58°56' E 011°10'3 5.4
2018-Jan-09 19:30N 58°56' E 011°05'0 0.9
2018-Jan-09 19:00N 58°56' E 011°04'3 5.5
2018-Jan-09 18:30N 58°56' E 010°59'4 7.3
2018-Jan-09 18:00N 58°53' E 010°54'4 7.2
2018-Jan-09 17:30N 58°51' E 010°49'4 7.0
2018-Jan-09 17:00N 58°48' E 010°44'3 6.4
2018-Jan-09 16:30N 58°47' E 010°39'3 6.0
2018-Jan-09 16:00N 58°45' E 010°34'3 5.5
2018-Jan-09 15:30N 58°44' E 010°29'3 5.3
2018-Jan-09 15:00N 58°43' E 010°24'3 5.1
2018-Jan-09 14:30N 58°42' E 010°19'4 4.8
2018-Jan-09 13:36N 58°40' E 010°12'0 2.2
2018-Jan-09 13:30N 58°40' E 010°12'1 2.2
2018-Jan-09 13:00N 58°40' E 010°14'0 0.8
2018-Jan-09 12:30N 58°40' E 010°15'1 1.5
2018-Jan-09 11:59N 58°40' E 010°17'1 1.5
2018-Jan-09 11:28N 58°39' E 010°17'1 1.6
2018-Jan-09 11:00N 58°38' E 010°18'1 1.6
2018-Jan-09 10:30N 58°38' E 010°18'1 1.5
2018-Jan-09 09:58N 58°37' E 010°19'1 1.6
2018-Jan-09 09:17N 58°36' E 010°21'0 1.5
2018-Jan-09 09:00N 58°36' E 010°21'1 1.5
2018-Jan-09 08:30N 58°35' E 010°22'2 1.4
2018-Jan-09 07:23N 58°34' E 010°24'2 1.5
2018-Jan-09 06:22N 58°32' E 010°24'1 1.4
2018-Jan-09 05:59N 58°32' E 010°24'1 1.6
2018-Jan-09 05:30N 58°31' E 010°25'1 1.5
2018-Jan-09 05:00N 58°31' E 010°26'1 1.5
2018-Jan-09 04:30N 58°30' E 010°26'1 1.4
2018-Jan-09 04:00N 58°29' E 010°26'1 1.6
2018-Jan-09 03:30N 58°29' E 010°27'1 1.5
2018-Jan-09 03:00N 58°28' E 010°28'1 1.5
2018-Jan-09 02:30N 58°27' E 010°29'1 1.5
2018-Jan-09 02:00N 58°27' E 010°29'1 1.5
2018-Jan-09 01:24N 58°26' E 010°29'1 1.4
2018-Jan-09 01:00N 58°25' E 010°29'1 2.1
2018-Jan-09 00:27N 58°24' E 010°29'16 5.3
2018-Jan-08 21:28N 58°37' E 010°11'0 0.2
2018-Jan-08 21:00N 58°37' E 010°11'4 2.0
2018-Jan-08 19:11N 58°34' E 010°08'1 2.8
2018-Jan-08 19:00N 58°34' E 010°08'2 3.0
2018-Jan-08 18:30N 58°35' E 010°10'2 4.5
2018-Jan-08 18:00N 58°36' E 010°14'3 5.3
2018-Jan-08 17:29N 58°37' E 010°19'  

Dump ship's entire track history